| time (UTC) | temp F | wind direction | speed MPH | gust MPH | rain 1hr in | rain 24hr in | rain mn in | humidity % | barometer mb |
| 20260904022643 | 76 | 193 | 0.0 | 1.0 | 0.00 | 0.02 | 0.02 | 86 | 1007.4 |
| 20260904022140 | 75 | 203 | 0.0 | 1.0 | 0.00 | 0.02 | 0.02 | 88 | 1007.4 |
| 20260904021636 | 75 | 202 | 0.0 | 0.0 | 0.00 | 0.02 | 0.02 | 88 | 1007.4 |
| 20260904021131 | 75 | 202 | 0.0 | 0.0 | 0.00 | 0.02 | 0.02 | 87 | 1007.2 |
| 20260904020627 | 76 | 202 | 0.0 | 0.0 | 0.00 | 0.02 | 0.02 | 87 | 1007.3 |
| 20260904020121 | 76 | 201 | 0.0 | 0.0 | 0.00 | 0.02 | 0.02 | 87 | 1007.3 |
| 20260904015615 | 76 | 202 | 0.0 | 0.0 | 0.00 | 0.02 | 0.02 | 86 | 1007.0 |
| 20260904015114 | 76 | 201 | 0.0 | 0.0 | 0.00 | 0.02 | 0.02 | 86 | 1007.1 |
| 20260904014608 | 77 | 201 | 0.0 | 0.0 | 0.00 | 0.02 | 0.02 | 86 | 1007.0 |
| 20260904014104 | 77 | 201 | 0.0 | 0.0 | 0.00 | 0.02 | 0.02 | 85 | 1007.2 |
| 20260904013600 | 77 | 201 | 0.0 | 0.0 | 0.00 | 0.02 | 0.02 | 84 | 1007.1 |
| 20260904013056 | 78 | 201 | 0.0 | 0.0 | 0.00 | 0.02 | 0.02 | 84 | 1007.0 |
| 20260904012556 | 78 | 201 | 0.0 | 1.0 | 0.00 | 0.02 | 0.02 | 83 | 1007.0 |
| 20260904012056 | 78 | 201 | 0.0 | 0.0 | 0.00 | 0.02 | 0.02 | 83 | 1006.9 |
| 20260904011555 | 78 | 201 | 0.0 | 0.0 | 0.00 | 0.02 | 0.02 | 82 | 1006.8 |
| 20260904011051 | 79 | 201 | 0.0 | 0.0 | 0.00 | 0.02 | 0.02 | 81 | 1007.0 |
| 20260904010546 | 80 | 201 | 0.0 | 0.0 | 0.00 | 0.02 | 0.02 | 80 | 1006.9 |
| 20260904010043 | 80 | 201 | 0.0 | 0.0 | 0.00 | 0.02 | 0.02 | 79 | 1006.7 |
| 20260904005543 | 80 | 201 | 0.0 | 0.0 | 0.00 | 0.02 | 0.02 | 78 | 1006.7 |
| 20260904005038 | 81 | 201 | 0.0 | 0.0 | 0.00 | 0.02 | 0.02 | 77 | 1006.6 |
| 20260904004534 | 82 | 201 | 0.0 | 0.0 | 0.00 | 0.02 | 0.02 | 75 | 1006.7 |
| 20260904004028 | 82 | 201 | 0.0 | 0.0 | 0.00 | 0.02 | 0.02 | 75 | 1006.7 |
| 20260904003524 | 83 | 201 | 0.0 | 0.0 | 0.00 | 0.02 | 0.02 | 73 | 1006.7 |
| 20260904003020 | 83 | 194 | 0.0 | 1.0 | 0.00 | 0.02 | 0.02 | 72 | 1006.7 |
| 20260904002516 | 84 | 194 | 0.0 | 0.0 | 0.00 | 0.02 | 0.02 | 71 | 1006.5 |
| 20260904002015 | 84 | 194 | 1.0 | 2.0 | 0.00 | 0.02 | 0.02 | 71 | 1006.6 |
| 20260904001511 | 84 | 202 | 1.0 | 1.0 | 0.00 | 0.02 | 0.02 | 70 | 1006.6 |
| 20260904001010 | 84 | 200 | 0.0 | 1.0 | 0.00 | 0.02 | 0.02 | 71 | 1006.6 |
| 20260904000510 | 84 | 200 | 0.0 | 0.0 | 0.00 | 0.02 | 0.02 | 70 | 1006.6 |
| 20260904000006 | 84 | 201 | 0.0 | 0.0 | 0.00 | 0.02 | 0.02 | 69 | 1006.7 |
| 20260903235500 | 84 | 203 | 1.0 | 2.0 | 0.00 | 0.02 | 0.02 | 68 | 1006.6 |
| 20260903234955 | 85 | 208 | 1.0 | 2.0 | 0.00 | 0.02 | 0.02 | 68 | 1006.8 |
| 20260903234451 | 85 | 212 | 1.0 | 1.0 | 0.00 | 0.02 | 0.02 | 67 | 1006.7 |
| 20260903233947 | 85 | 201 | 1.0 | 1.0 | 0.00 | 0.02 | 0.02 | 67 | 1006.6 |
| 20260903233443 | 85 | 206 | 2.0 | 2.0 | 0.00 | 0.02 | 0.02 | 67 | 1006.7 |
| 20260903232938 | 85 | 194 | 1.0 | 1.0 | 0.00 | 0.02 | 0.02 | 66 | 1006.4 |
| 20260903232433 | 86 | 183 | 2.0 | 3.0 | 0.00 | 0.02 | 0.02 | 66 | 1006.4 |
| 20260903231933 | 86 | 193 | 1.0 | 1.0 | 0.00 | 0.02 | 0.02 | 65 | 1006.3 |
| 20260903231428 | 86 | 202 | 3.0 | 5.0 | 0.00 | 0.02 | 0.02 | 65 | 1006.4 |
| 20260903230922 | 86 | 205 | 1.0 | 1.0 | 0.00 | 0.02 | 0.02 | 65 | 1005.9 |
| 20260903230418 | 86 | 204 | 0.0 | 0.0 | 0.00 | 0.02 | 0.02 | 65 | 1005.7 |
| 20260903225914 | 86 | 193 | 1.0 | 1.0 | 0.00 | 0.02 | 0.02 | 65 | 1005.7 |
| 20260903225410 | 86 | 226 | 1.0 | 2.0 | 0.00 | 0.02 | 0.02 | 65 | 1005.7 |
| 20260903224906 | 86 | 213 | 2.0 | 2.0 | 0.00 | 0.02 | 0.02 | 65 | 1005.7 |
| 20260903224401 | 86 | 193 | 1.0 | 1.0 | 0.00 | 0.02 | 0.02 | 66 | 1005.9 |
| 20260903223857 | 85 | 203 | 5.0 | 7.0 | 0.00 | 0.02 | 0.02 | 65 | 1005.6 |
| 20260903223356 | 85 | 198 | 2.0 | 2.0 | 0.00 | 0.02 | 0.02 | 67 | 1005.7 |
| 20260903222851 | 85 | 176 | 3.0 | 3.0 | 0.00 | 0.02 | 0.02 | 66 | 1005.9 |
| 20260903222351 | 85 | 216 | 2.0 | 2.0 | 0.00 | 0.02 | 0.02 | 67 | 1006.0 |
| 20260903221845 | 85 | 169 | 1.0 | 2.0 | 0.00 | 0.02 | 0.02 | 67 | 1006.0 |
| 20260903221344 | 85 | 191 | 2.0 | 3.0 | 0.00 | 0.02 | 0.02 | 66 | 1006.3 |
| 20260903220842 | 85 | 198 | 3.0 | 5.0 | 0.00 | 0.02 | 0.02 | 65 | 1006.2 |
| 20260903220337 | 85 | 217 | 1.0 | 2.0 | 0.00 | 0.02 | 0.02 | 65 | 1006.3 |
| 20260903215835 | 85 | 188 | 3.0 | 3.0 | 0.00 | 0.02 | 0.02 | 64 | 1006.3 |
| 20260903215332 | 85 | 192 | 2.0 | 3.0 | 0.00 | 0.02 | 0.02 | 65 | 1006.5 |
| 20260903214830 | 85 | 148 | 2.0 | 2.0 | 0.00 | 0.02 | 0.02 | 65 | 1006.7 |
| 20260903214326 | 86 | 195 | 1.0 | 2.0 | 0.00 | 0.02 | 0.02 | 65 | 1006.5 |
| 20260903213820 | 86 | 223 | 1.0 | 1.0 | 0.00 | 0.02 | 0.02 | 64 | 1006.5 |
| 20260903213315 | 86 | 200 | 2.0 | 3.0 | 0.00 | 0.02 | 0.02 | 65 | 1006.4 |
| 20260903212812 | 86 | 190 | 1.0 | 2.0 | 0.00 | 0.02 | 0.02 | 65 | 1006.5 |
| 20260903212308 | 86 | 221 | 5.0 | 7.0 | 0.00 | 0.02 | 0.02 | 64 | 1006.6 |
| 20260903211807 | 86 | 201 | 3.0 | 3.0 | 0.00 | 0.02 | 0.02 | 65 | 1006.4 |
| 20260903211303 | 86 | 207 | 3.0 | 5.0 | 0.00 | 0.02 | 0.02 | 65 | 1006.3 |
| 20260903210759 | 87 | 187 | 1.0 | 2.0 | 0.00 | 0.02 | 0.02 | 65 | 1006.2 |
| 20260903210254 | 86 | 214 | 2.0 | 2.0 | 0.00 | 0.02 | 0.02 | 65 | 1006.4 |
| 20260903205754 | 86 | 176 | 3.0 | 5.0 | 0.00 | 0.02 | 0.02 | 66 | 1006.5 |
| 20260903205254 | 86 | 213 | 4.0 | 5.0 | 0.00 | 0.02 | 0.02 | 67 | 1006.4 |
| 20260903204749 | 86 | 194 | 2.0 | 3.0 | 0.00 | 0.02 | 0.02 | 68 | 1006.4 |
| 20260903204245 | 86 | 217 | 3.0 | 3.0 | 0.00 | 0.02 | 0.02 | 68 | 1006.4 |
| 20260903203740 | 86 | 204 | 4.0 | 5.0 | 0.00 | 0.02 | 0.02 | 67 | 1006.4 |
| 20260903203236 | 86 | 201 | 1.0 | 2.0 | 0.00 | 0.02 | 0.02 | 70 | 1006.3 |
| 20260903202729 | 85 | 200 | 1.0 | 1.0 | 0.00 | 0.02 | 0.02 | 71 | 1006.5 |
| 20260903202226 | 84 | 195 | 2.0 | 2.0 | 0.00 | 0.02 | 0.02 | 72 | 1006.7 |
| 20260903201725 | 84 | 178 | 2.0 | 2.0 | 0.00 | 0.02 | 0.02 | 71 | 1006.7 |
| 20260903201221 | 84 | 209 | 5.0 | 7.0 | 0.00 | 0.02 | 0.02 | 70 | 1006.8 |
| 20260903200719 | 84 | 187 | 2.0 | 3.0 | 0.00 | 0.02 | 0.02 | 70 | 1006.8 |
| 20260903200215 | 84 | 211 | 4.0 | 5.0 | 0.00 | 0.02 | 0.02 | 69 | 1007.2 |
| 20260903195710 | 85 | 164 | 3.0 | 3.0 | 0.00 | 0.02 | 0.02 | 68 | 1007.1 |
| 20260903195206 | 85 | 204 | 2.0 | 2.0 | 0.00 | 0.02 | 0.02 | 68 | 1007.3 |
| 20260903194706 | 85 | 203 | 3.0 | 3.0 | 0.00 | 0.02 | 0.02 | 68 | 1007.1 |
| 20260903194202 | 84 | 205 | 3.0 | 5.0 | 0.00 | 0.02 | 0.02 | 68 | 1007.3 |
| 20260903193657 | 85 | 203 | 1.0 | 2.0 | 0.00 | 0.02 | 0.02 | 68 | 1007.2 |
| 20260903193152 | 85 | 191 | 3.0 | 3.0 | 0.00 | 0.02 | 0.02 | 67 | 1007.3 |
| 20260903192648 | 85 | 179 | 4.0 | 6.0 | 0.00 | 0.02 | 0.02 | 66 | 1007.2 |
| 20260903192148 | 85 | 189 | 3.0 | 5.0 | 0.00 | 0.02 | 0.02 | 66 | 1007.5 |
| 20260903191645 | 85 | 179 | 2.0 | 2.0 | 0.00 | 0.02 | 0.02 | 66 | 1007.5 |
| 20260903191144 | 84 | 174 | 2.0 | 2.0 | 0.00 | 0.02 | 0.02 | 67 | 1007.5 |
| 20260903190639 | 84 | 185 | 3.0 | 5.0 | 0.00 | 0.02 | 0.02 | 67 | 1007.5 |
| 20260903190133 | 84 | 217 | 1.0 | 1.0 | 0.00 | 0.02 | 0.02 | 67 | 1007.4 |
| 20260903185629 | 84 | 202 | 2.0 | 2.0 | 0.00 | 0.02 | 0.02 | 67 | 1007.3 |
| 20260903185124 | 84 | 194 | 2.0 | 3.0 | 0.00 | 0.02 | 0.02 | 66 | 1007.5 |
| 20260903184620 | 84 | 190 | 1.0 | 2.0 | 0.00 | 0.02 | 0.02 | 67 | 1007.8 |
| 20260903184115 | 83 | 220 | 1.0 | 2.0 | 0.00 | 0.02 | 0.02 | 67 | 1007.8 |
| 20260903183614 | 83 | 209 | 4.0 | 7.0 | 0.00 | 0.02 | 0.02 | 68 | 1007.8 |
| 20260903183109 | 83 | 176 | 6.0 | 7.0 | 0.00 | 0.02 | 0.02 | 67 | 1007.6 |
| 20260903182608 | 82 | 188 | 1.0 | 2.0 | 0.00 | 0.02 | 0.02 | 70 | 1007.5 |
| 20260903182105 | 82 | 202 | 1.0 | 2.0 | 0.00 | 0.02 | 0.02 | 70 | 1007.6 |
| 20260903181603 | 82 | 194 | 5.0 | 6.0 | 0.00 | 0.02 | 0.02 | 68 | 1007.8 |
| 20260903181057 | 81 | 189 | 3.0 | 3.0 | 0.00 | 0.02 | 0.02 | 70 | 1007.7 |
| 20260903180553 | 80 | 190 | 3.0 | 3.0 | 0.00 | 0.02 | 0.02 | 75 | 1007.8 |
| 20260903180047 | 79 | 208 | 0.0 | 0.0 | 0.00 | 0.02 | 0.02 | 78 | 1007.7 |
| 20260903175546 | 79 | 207 | 2.0 | 2.0 | 0.14 | 0.02 | 0.02 | 78 | 1007.9 |
| 20260903175046 | 81 | 188 | 1.0 | 1.0 | 0.14 | 0.02 | 0.02 | 74 | 1007.8 |
| 20260903174540 | 83 | 192 | 1.0 | 2.0 | 0.00 | 0.00 | 0.00 | 65 | 1008.0 |
| 20260903174036 | 84 | 185 | 3.0 | 5.0 | 0.00 | 0.00 | 0.00 | 63 | 1007.9 |
| 20260903173530 | 84 | 197 | 3.0 | 5.0 | 0.00 | 0.00 | 0.00 | 62 | 1008.1 |
| 20260903173026 | 85 | 208 | 3.0 | 3.0 | 0.00 | 0.00 | 0.00 | 61 | 1008.2 |
| 20260903172521 | 84 | 208 | 2.0 | 2.0 | 0.00 | 0.00 | 0.00 | 62 | 1008.2 |
| 20260903172017 | 84 | 182 | 1.0 | 2.0 | 0.00 | 0.00 | 0.00 | 61 | 1008.1 |
| 20260903171511 | 84 | 195 | 2.0 | 2.0 | 0.00 | 0.00 | 0.00 | 61 | 1007.9 |
| 20260903171006 | 85 | 186 | 1.0 | 1.0 | 0.00 | 0.00 | 0.00 | 62 | 1008.3 |
| 20260903170500 | 85 | 187 | 1.0 | 2.0 | 0.00 | 0.00 | 0.00 | 62 | 1008.5 |
| 20260903170000 | 84 | 196 | 1.0 | 2.0 | 0.00 | 0.00 | 0.00 | 61 | 1008.1 |
| 20260903165453 | 85 | 204 | 2.0 | 2.0 | 0.00 | 0.00 | 0.00 | 61 | 1008.3 |
| 20260903164948 | 86 | 190 | 3.0 | 5.0 | 0.00 | 0.00 | 0.00 | 60 | 1008.4 |
| 20260903164438 | 87 | 192 | 2.0 | 2.0 | 0.00 | 0.00 | 0.00 | 59 | 1008.5 |
| 20260903163937 | 87 | 167 | 1.0 | 2.0 | 0.00 | 0.00 | 0.00 | 59 | 1008.5 |
| 20260903163433 | 86 | 208 | 1.0 | 1.0 | 0.00 | 0.00 | 0.00 | 59 | 1008.2 |
| 20260903162929 | 85 | 199 | 3.0 | 3.0 | 0.00 | 0.00 | 0.00 | 60 | 1008.5 |
| 20260903162426 | 86 | 197 | 3.0 | 3.0 | 0.00 | 0.00 | 0.00 | 59 | 1008.5 |
| 20260903161921 | 86 | 215 | 2.0 | 3.0 | 0.00 | 0.00 | 0.00 | 61 | 1008.3 |
| 20260903161416 | 85 | 184 | 2.0 | 2.0 | 0.00 | 0.00 | 0.00 | 61 | 1008.2 |
| 20260903160913 | 84 | 199 | 1.0 | 1.0 | 0.00 | 0.00 | 0.00 | 61 | 1008.5 |
| 20260903160411 | 84 | 254 | 5.0 | 7.0 | 0.00 | 0.00 | 0.00 | 61 | 1008.6 |
| 20260903155910 | 84 | 192 | 2.0 | 2.0 | 0.00 | 0.00 | 0.00 | 64 | 1008.6 |
| 20260903155405 | 83 | 194 | 1.0 | 1.0 | 0.00 | 0.00 | 0.00 | 65 | 1008.5 |
| 20260903154900 | 82 | 186 | 3.0 | 3.0 | 0.00 | 0.00 | 0.00 | 69 | 1008.6 |
| 20260903154351 | 83 | 166 | 1.0 | 2.0 | 0.00 | 0.00 | 0.00 | 69 | 1008.7 |
| 20260903153851 | 82 | 200 | 1.0 | 1.0 | 0.00 | 0.00 | 0.00 | 68 | 1008.5 |
| 20260903153346 | 82 | 193 | 2.0 | 3.0 | 0.00 | 0.00 | 0.00 | 68 | 1008.5 |
| 20260903152843 | 82 | 195 | 1.0 | 1.0 | 0.00 | 0.00 | 0.00 | 68 | 1008.6 |
| 20260903152338 | 81 | 210 | 1.0 | 2.0 | 0.00 | 0.00 | 0.00 | 69 | 1008.4 |
| 20260903151833 | 81 | 193 | 1.0 | 2.0 | 0.00 | 0.00 | 0.00 | 72 | 1008.4 |
| 20260903151329 | 81 | 177 | 2.0 | 2.0 | 0.00 | 0.00 | 0.00 | 73 | 1008.6 |
| 20260903150828 | 80 | 208 | 0.0 | 0.0 | 0.00 | 0.00 | 0.00 | 74 | 1008.5 |
| 20260903150323 | 80 | 188 | 2.0 | 2.0 | 0.00 | 0.00 | 0.00 | 72 | 1008.5 |
| 20260903145818 | 80 | 195 | 0.0 | 1.0 | 0.00 | 0.00 | 0.00 | 76 | 1008.6 |
| 20260903145313 | 79 | 201 | 1.0 | 1.0 | 0.00 | 0.00 | 0.00 | 76 | 1008.4 |
| 20260903144813 | 79 | 200 | 0.0 | 1.0 | 0.00 | 0.00 | 0.00 | 78 | 1008.4 |
| 20260903144308 | 78 | 209 | 1.0 | 1.0 | 0.00 | 0.00 | 0.00 | 80 | 1008.6 |
| 20260903143803 | 78 | 213 | 1.0 | 1.0 | 0.00 | 0.00 | 0.00 | 82 | 1008.6 |
| 20260903143300 | 77 | 206 | 0.0 | 0.0 | 0.00 | 0.00 | 0.00 | 83 | 1008.6 |
| 20260903142755 | 77 | 206 | 0.0 | 1.0 | 0.00 | 0.00 | 0.00 | 84 | 1008.6 |
| 20260903142251 | 76 | 198 | 0.0 | 0.0 | 0.00 | 0.00 | 0.00 | 86 | 1008.8 |
| 20260903141747 | 76 | 184 | 0.0 | 0.0 | 0.00 | 0.00 | 0.00 | 87 | 1008.8 |
| 20260903141242 | 75 | 202 | 2.0 | 2.0 | 0.00 | 0.00 | 0.00 | 87 | 1008.8 |
| 20260903140737 | 75 | 193 | 0.0 | 0.0 | 0.00 | 0.00 | 0.00 | 88 | 1008.9 |
| 20260903140232 | 75 | 208 | 1.0 | 1.0 | 0.00 | 0.00 | 0.00 | 88 | 1008.9 |
| 20260903135728 | 74 | 200 | 0.0 | 0.0 | 0.00 | 0.00 | 0.00 | 89 | 1008.8 |
| 20260903135223 | 74 | 214 | 0.0 | 0.0 | 0.00 | 0.00 | 0.00 | 90 | 1008.9 |
| 20260903134721 | 73 | 212 | 0.0 | 0.0 | 0.00 | 0.00 | 0.00 | 91 | 1009.0 |
| 20260903134218 | 73 | 214 | 0.0 | 0.0 | 0.00 | 0.00 | 0.00 | 92 | 1009.2 |
| 20260903133715 | 72 | 210 | 0.0 | 0.0 | 0.00 | 0.00 | 0.00 | 92 | 1009.1 |
| 20260903133212 | 72 | 210 | 0.0 | 0.0 | 0.00 | 0.00 | 0.00 | 93 | 1009.0 |
| 20260903132712 | 71 | 212 | 0.0 | 0.0 | 0.00 | 0.00 | 0.00 | 93 | 1009.1 |
| 20260903132206 | 71 | 204 | 0.0 | 1.0 | 0.00 | 0.00 | 0.00 | 93 | 1009.2 |
| 20260903131701 | 71 | 206 | 0.0 | 0.0 | 0.00 | 0.00 | 0.00 | 93 | 1009.3 |
| 20260903131201 | 71 | 211 | 0.0 | 0.0 | 0.00 | 0.00 | 0.00 | 93 | 1009.1 |
| 20260903130655 | 71 | 199 | 0.0 | 0.0 | 0.00 | 0.00 | 0.00 | 94 | 1008.9 |
| 20260903130150 | 70 | 253 | 1.0 | 1.0 | 0.00 | 0.00 | 0.00 | 94 | 1008.9 |
| 20260903125648 | 70 | 219 | 1.0 | 1.0 | 0.00 | 0.00 | 0.00 | 95 | 1008.9 |
| 20260903125144 | 70 | 215 | 0.0 | 0.0 | 0.00 | 0.00 | 0.00 | 95 | 1008.9 |
| 20260903124644 | 70 | 192 | 1.0 | 1.0 | 0.00 | 0.00 | 0.00 | 95 | 1008.8 |
| 20260903124137 | 69 | 43 | 1.0 | 1.0 | 0.00 | 0.00 | 0.00 | 96 | 1008.8 |
| 20260903123631 | 69 | 320 | 2.0 | 2.0 | 0.00 | 0.00 | 0.00 | 96 | 1008.6 |
| 20260903123130 | 69 | 252 | 1.0 | 1.0 | 0.00 | 0.00 | 0.00 | 97 | 1008.7 |
| 20260903122625 | 68 | 233 | 1.0 | 1.0 | 0.00 | 0.00 | 0.00 | 97 | 1008.7 |
| 20260903122125 | 68 | 217 | 0.0 | 0.0 | 0.00 | 0.00 | 0.00 | 97 | 1008.5 |
| 20260903121624 | 68 | 229 | 0.0 | 0.0 | 0.00 | 0.00 | 0.00 | 97 | 1008.8 |
| 20260903121120 | 68 | 233 | 0.0 | 0.0 | 0.00 | 0.00 | 0.00 | 97 | 1008.7 |
| 20260903120618 | 68 | 223 | 0.0 | 0.0 | 0.00 | 0.00 | 0.00 | 97 | 1008.7 |
| 20260903120113 | 68 | 211 | 0.0 | 0.0 | 0.00 | 0.00 | 0.00 | 97 | 1008.7 |
| 20260903115611 | 68 | 202 | 0.0 | 0.0 | 0.00 | 0.00 | 0.00 | 97 | 1008.7 |
| 20260903115107 | 68 | 212 | 0.0 | 0.0 | 0.00 | 0.00 | 0.00 | 97 | 1009.0 |
| 20260903114602 | 68 | 212 | 0.0 | 0.0 | 0.00 | 0.00 | 0.00 | 97 | 1009.0 |
| 20260903114058 | 68 | 212 | 0.0 | 0.0 | 0.00 | 0.00 | 0.00 | 97 | 1009.1 |
| 20260903113553 | 67 | 223 | 0.0 | 0.0 | 0.00 | 0.00 | 0.00 | 97 | 1008.8 |
| 20260903113049 | 67 | 209 | 0.0 | 0.0 | 0.00 | 0.00 | 0.00 | 97 | 1008.7 |
| 20260903112545 | 67 | 220 | 0.0 | 0.0 | 0.00 | 0.00 | 0.00 | 97 | 1008.6 |
| 20260903112045 | 67 | 220 | 0.0 | 0.0 | 0.00 | 0.00 | 0.00 | 97 | 1008.9 |
| 20260903111544 | 67 | 220 | 0.0 | 0.0 | 0.00 | 0.00 | 0.00 | 97 | 1008.9 |
| 20260903111040 | 67 | 228 | 0.0 | 0.0 | 0.00 | 0.00 | 0.00 | 97 | 1008.9 |
| 20260903110536 | 67 | 209 | 0.0 | 0.0 | 0.00 | 0.00 | 0.00 | 97 | 1008.8 |
| 20260903110030 | 67 | 209 | 0.0 | 0.0 | 0.00 | 0.00 | 0.00 | 96 | 1008.8 |
| 20260903105525 | 67 | 208 | 0.0 | 0.0 | 0.00 | 0.00 | 0.00 | 96 | 1008.8 |
| 20260903105019 | 67 | 173 | 1.0 | 1.0 | 0.00 | 0.00 | 0.00 | 96 | 1008.8 |
| 20260903104514 | 67 | 209 | 0.0 | 0.0 | 0.00 | 0.00 | 0.00 | 96 | 1009.0 |
| 20260903104010 | 67 | 209 | 0.0 | 0.0 | 0.00 | 0.00 | 0.00 | 96 | 1008.9 |
| 20260903103505 | 67 | 209 | 0.0 | 0.0 | 0.00 | 0.00 | 0.00 | 96 | 1008.9 |
| 20260903103002 | 67 | 209 | 0.0 | 0.0 | 0.00 | 0.00 | 0.00 | 96 | 1008.9 |
| 20260903102456 | 67 | 206 | 0.0 | 0.0 | 0.00 | 0.00 | 0.00 | 96 | 1008.9 |
| 20260903101955 | 67 | 206 | 0.0 | 0.0 | 0.00 | 0.00 | 0.00 | 96 | 1008.8 |
| 20260903101450 | 67 | 205 | 0.0 | 0.0 | 0.00 | 0.00 | 0.00 | 96 | 1008.8 |
| 20260903100946 | 67 | 212 | 0.0 | 0.0 | 0.00 | 0.00 | 0.00 | 96 | 1008.9 |
| 20260903100441 | 67 | 212 | 0.0 | 0.0 | 0.00 | 0.00 | 0.00 | 96 | 1008.9 |
| 20260903095938 | 67 | 212 | 0.0 | 0.0 | 0.00 | 0.00 | 0.00 | 96 | 1008.9 |
| 20260903095432 | 67 | 212 | 0.0 | 0.0 | 0.00 | 0.00 | 0.00 | 96 | 1008.6 |
| 20260903094927 | 66 | 212 | 0.0 | 0.0 | 0.00 | 0.00 | 0.00 | 96 | 1008.5 |
| 20260903094421 | 66 | 212 | 0.0 | 0.0 | 0.00 | 0.00 | 0.00 | 96 | 1008.7 |
| 20260903093918 | 67 | 208 | 0.0 | 0.0 | 0.00 | 0.00 | 0.00 | 96 | 1008.6 |
| 20260903093418 | 67 | 211 | 0.0 | 0.0 | 0.00 | 0.00 | 0.00 | 96 | 1008.7 |
| 20260903092914 | 66 | 206 | 0.0 | 0.0 | 0.00 | 0.00 | 0.00 | 96 | 1008.6 |
| 20260903092408 | 66 | 206 | 0.0 | 0.0 | 0.00 | 0.00 | 0.00 | 96 | 1008.5 |
| 20260903091906 | 66 | 206 | 0.0 | 0.0 | 0.00 | 0.00 | 0.00 | 95 | 1008.4 |
| 20260903091405 | 66 | 206 | 0.0 | 0.0 | 0.00 | 0.00 | 0.00 | 96 | 1008.6 |
| 20260903090900 | 66 | 206 | 0.0 | 0.0 | 0.00 | 0.00 | 0.00 | 96 | 1008.7 |
| 20260903090356 | 67 | 206 | 0.0 | 0.0 | 0.00 | 0.00 | 0.00 | 96 | 1008.9 |
| 20260903085854 | 67 | 206 | 0.0 | 0.0 | 0.00 | 0.00 | 0.00 | 96 | 1008.8 |
| 20260903085348 | 67 | 206 | 0.0 | 0.0 | 0.00 | 0.00 | 0.00 | 96 | 1008.9 |
| 20260903084847 | 66 | 206 | 0.0 | 0.0 | 0.00 | 0.00 | 0.00 | 95 | 1008.6 |
| 20260903084346 | 67 | 204 | 0.0 | 0.0 | 0.00 | 0.00 | 0.00 | 95 | 1008.5 |
| 20260903083841 | 67 | 216 | 0.0 | 0.0 | 0.00 | 0.00 | 0.00 | 95 | 1008.5 |
| 20260903083337 | 66 | 217 | 0.0 | 0.0 | 0.00 | 0.00 | 0.00 | 95 | 1008.8 |
| 20260903082836 | 66 | 217 | 0.0 | 0.0 | 0.00 | 0.00 | 0.00 | 95 | 1008.9 |
| 20260903082331 | 66 | 217 | 0.0 | 0.0 | 0.00 | 0.00 | 0.00 | 95 | 1008.8 |
| 20260903081826 | 66 | 217 | 0.0 | 0.0 | 0.00 | 0.00 | 0.00 | 94 | 1008.7 |
| 20260903081322 | 66 | 217 | 0.0 | 0.0 | 0.00 | 0.00 | 0.00 | 94 | 1008.8 |
| 20260903080818 | 66 | 217 | 0.0 | 0.0 | 0.00 | 0.00 | 0.00 | 94 | 1008.8 |
| 20260903080315 | 67 | 217 | 0.0 | 0.0 | 0.00 | 0.00 | 0.00 | 94 | 1009.0 |
| 20260903075814 | 67 | 217 | 0.0 | 0.0 | 0.00 | 0.00 | 0.00 | 94 | 1009.0 |
| 20260903075310 | 67 | 217 | 0.0 | 0.0 | 0.00 | 0.00 | 0.00 | 94 | 1009.2 |
| 20260903074809 | 67 | 217 | 0.0 | 0.0 | 0.00 | 0.00 | 0.00 | 93 | 1009.3 |
| 20260903074304 | 67 | 216 | 0.0 | 0.0 | 0.00 | 0.00 | 0.00 | 93 | 1009.2 |
| 20260903073800 | 67 | 216 | 0.0 | 0.0 | 0.00 | 0.00 | 0.00 | 93 | 1009.1 |
| 20260903073255 | 67 | 216 | 0.0 | 0.0 | 0.00 | 0.00 | 0.00 | 93 | 1009.3 |
| 20260903072751 | 68 | 216 | 0.0 | 0.0 | 0.00 | 0.00 | 0.00 | 93 | 1009.1 |
| 20260903072247 | 68 | 217 | 0.0 | 0.0 | 0.00 | 0.00 | 0.00 | 92 | 1009.0 |
| 20260903071743 | 68 | 217 | 0.0 | 0.0 | 0.00 | 0.00 | 0.00 | 92 | 1009.2 |
| 20260903071238 | 68 | 217 | 0.0 | 0.0 | 0.00 | 0.00 | 0.00 | 91 | 1009.5 |
| 20260903070738 | 68 | 217 | 0.0 | 0.0 | 0.00 | 0.00 | 0.00 | 91 | 1009.3 |
| 20260903070234 | 69 | 217 | 0.0 | 0.0 | 0.00 | 0.00 | 0.00 | 90 | 1009.3 |
| 20260903065729 | 69 | 223 | 0.0 | 0.0 | 0.00 | 0.00 | 0.00 | 90 | 1009.2 |
| 20260903065228 | 69 | 223 | 0.0 | 0.0 | 0.00 | 0.00 | 0.00 | 90 | 1009.4 |
| 20260903064727 | 70 | 223 | 0.0 | 0.0 | 0.00 | 0.00 | 0.00 | 89 | 1009.2 |
| 20260903064223 | 70 | 223 | 0.0 | 0.0 | 0.00 | 0.00 | 0.00 | 89 | 1009.4 |
| 20260903063719 | 70 | 223 | 0.0 | 0.0 | 0.00 | 0.00 | 0.00 | 89 | 1009.3 |
| 20260903063213 | 70 | 223 | 0.0 | 0.0 | 0.00 | 0.00 | 0.00 | 88 | 1009.4 |
| 20260903062709 | 70 | 223 | 0.0 | 0.0 | 0.00 | 0.00 | 0.00 | 88 | 1009.6 |
| 20260903062203 | 70 | 223 | 0.0 | 0.0 | 0.00 | 0.00 | 0.00 | 88 | 1009.4 |
| 20260903061700 | 70 | 223 | 0.0 | 0.0 | 0.00 | 0.00 | 0.00 | 88 | 1009.3 |
| 20260903061158 | 70 | 223 | 0.0 | 0.0 | 0.00 | 0.00 | 0.00 | 88 | 1009.5 |
| 20260903060654 | 70 | 223 | 0.0 | 0.0 | 0.00 | 0.00 | 0.00 | 88 | 1009.5 |
| 20260903060143 | 70 | 223 | 0.0 | 0.0 | 0.00 | 0.00 | 0.00 | 88 | 1009.5 |
| 20260903055641 | 70 | 223 | 0.0 | 0.0 | 0.00 | 0.00 | 0.00 | 88 | 1009.5 |
| 20260903055139 | 70 | 223 | 0.0 | 0.0 | 0.00 | 0.00 | 0.00 | 88 | 1009.5 |
| 20260903054634 | 70 | 223 | 0.0 | 0.0 | 0.00 | 0.00 | 0.00 | 88 | 1009.5 |
| 20260903054130 | 70 | 223 | 0.0 | 0.0 | 0.00 | 0.00 | 0.00 | 87 | 1009.5 |
| 20260903053626 | 70 | 223 | 0.0 | 0.0 | 0.00 | 0.00 | 0.00 | 87 | 1009.5 |
| 20260903053121 | 70 | 223 | 0.0 | 0.0 | 0.00 | 0.00 | 0.00 | 87 | 1009.5 |
| 20260903052617 | 70 | 223 | 0.0 | 0.0 | 0.00 | 0.00 | 0.00 | 87 | 1009.3 |
| 20260903052112 | 70 | 212 | 0.0 | 0.0 | 0.00 | 0.00 | 0.00 | 88 | 1009.4 |
| 20260903051612 | 70 | 212 | 0.0 | 0.0 | 0.00 | 0.00 | 0.00 | 87 | 1009.6 |
| 20260903051108 | 70 | 214 | 0.0 | 0.0 | 0.00 | 0.00 | 0.00 | 87 | 1009.5 |
| 20260903050602 | 70 | 212 | 0.0 | 0.0 | 0.00 | 0.00 | 0.00 | 87 | 1009.5 |
| 20260903050057 | 71 | 211 | 0.0 | 0.0 | 0.00 | 0.01 | 0.01 | 87 | 1009.5 |
| 20260903045556 | 71 | 211 | 0.0 | 0.0 | 0.00 | 0.01 | 0.01 | 86 | 1009.4 |
| 20260903045053 | 71 | 211 | 0.0 | 0.0 | 0.00 | 0.01 | 0.01 | 86 | 1009.6 |
| 20260903044549 | 71 | 212 | 0.0 | 0.0 | 0.00 | 0.01 | 0.01 | 86 | 1009.8 |
| 20260903044044 | 71 | 212 | 0.0 | 0.0 | 0.00 | 0.01 | 0.01 | 86 | 1009.8 |
| 20260903043539 | 71 | 212 | 0.0 | 0.0 | 0.00 | 0.01 | 0.01 | 86 | 1009.6 |
| 20260903043039 | 71 | 212 | 0.0 | 0.0 | 0.00 | 0.01 | 0.01 | 86 | 1009.5 |
| 20260903042534 | 70 | 212 | 0.0 | 0.0 | 0.00 | 0.01 | 0.01 | 87 | 1009.6 |
| 20260903042029 | 70 | 212 | 0.0 | 0.0 | 0.00 | 0.01 | 0.01 | 89 | 1010.0 |
| 20260903041526 | 70 | 212 | 0.0 | 0.0 | 0.00 | 0.01 | 0.01 | 89 | 1009.9 |
| 20260903041021 | 70 | 212 | 0.0 | 0.0 | 0.00 | 0.01 | 0.01 | 89 | 1009.8 |
| 20260903040519 | 70 | 212 | 0.0 | 0.0 | 0.00 | 0.01 | 0.01 | 89 | 1009.9 |
| 20260903040017 | 70 | 212 | 0.0 | 0.0 | 0.00 | 0.01 | 0.01 | 89 | 1009.8 |
| 20260903035511 | 69 | 212 | 0.0 | 0.0 | 0.00 | 0.01 | 0.01 | 89 | 1010.0 |
| 20260903035008 | 70 | 212 | 0.0 | 0.0 | 0.00 | 0.01 | 0.01 | 89 | 1009.8 |
| 20260903034507 | 69 | 212 | 0.0 | 0.0 | 0.00 | 0.01 | 0.01 | 90 | 1009.9 |
| 20260903034002 | 69 | 212 | 0.0 | 0.0 | 0.00 | 0.01 | 0.01 | 89 | 1009.9 |
| 20260903033457 | 69 | 212 | 0.0 | 0.0 | 0.00 | 0.01 | 0.01 | 89 | 1009.9 |
| 20260903032952 | 69 | 212 | 0.0 | 0.0 | 0.00 | 0.01 | 0.01 | 89 | 1010.0 |
| 20260903032448 | 69 | 212 | 0.0 | 0.0 | 0.00 | 0.01 | 0.01 | 88 | 1010.0 |
| 20260903031943 | 69 | 212 | 0.0 | 0.0 | 0.00 | 0.01 | 0.01 | 88 | 1010.0 |
| 20260903031443 | 69 | 212 | 0.0 | 0.0 | 0.00 | 0.01 | 0.01 | 88 | 1010.1 |
| 20260903030938 | 69 | 212 | 0.0 | 0.0 | 0.00 | 0.01 | 0.01 | 88 | 1010.2 |
| 20260903030434 | 69 | 212 | 0.0 | 0.0 | 0.00 | 0.01 | 0.01 | 87 | 1009.9 |
| 20260903025929 | 70 | 212 | 0.0 | 0.0 | 0.00 | 0.01 | 0.01 | 87 | 1010.0 |
| 20260903025425 | 70 | 212 | 0.0 | 0.0 | 0.00 | 0.01 | 0.01 | 87 | 1010.0 |
| 20260903024920 | 70 | 212 | 0.0 | 0.0 | 0.00 | 0.01 | 0.01 | 87 | 1009.9 |
| 20260903024414 | 70 | 212 | 0.0 | 0.0 | 0.00 | 0.01 | 0.01 | 87 | 1010.1 |
| 20260903023909 | 70 | 212 | 0.0 | 0.0 | 0.00 | 0.01 | 0.01 | 87 | 1010.1 |
| 20260903023405 | 70 | 212 | 0.0 | 0.0 | 0.00 | 0.01 | 0.01 | 86 | 1009.9 |
| 20260903022900 | 70 | 212 | 0.0 | 0.0 | 0.00 | 0.01 | 0.01 | 86 | 1009.9 |